AFL1010 UHWW-UHSS
Flight info
| Callsign | AFL1010 |
|---|---|
| Flight time | N/A |
| Altitude | 39000 |
| Route | DOLMA B356 LUBOK W209 RUNUK R810 TIMIT B919 KENOM KENOM2A |
| Aircraft | A20N/M-SDE2E3FGHIRWXY/LB1 |
Departure
| Time | 2026-04-10 15:59 |
|---|---|
| Airport | Vladivostok International Airport (UHWW) |
Arrival
| Time | N/A |
|---|---|
| Airport | Yuzhno-Sakhalinsk International Airport (UHSS) |
| Time | Latitude | Longitude | Altitude | Speed | Heading |
|---|---|---|---|---|---|
| 2026-04-10 15:37 | 43.39852 | 132.16301 | 49 ft | 0 kts | 324° |
| 2026-04-10 15:52 | 43.39853 | 132.16300 | 49 ft | 1 kts | 324° |
| 2026-04-10 15:52 | 43.39862 | 132.16291 | 47 ft | 2 kts | 322° |
| 2026-04-10 15:53 | 43.39879 | 132.16268 | 49 ft | 3 kts | 304° |
| 2026-04-10 15:53 | 43.39876 | 132.16230 | 49 ft | 5 kts | 255° |
| 2026-04-10 15:53 | 43.39866 | 132.16176 | 47 ft | 7 kts | 263° |
| 2026-04-10 15:53 | 43.39889 | 132.16117 | 48 ft | 7 kts | 317° |
| 2026-04-10 15:54 | 43.39885 | 132.16054 | 49 ft | 8 kts | 248° |
| 2026-04-10 15:54 | 43.39858 | 132.15974 | 49 ft | 11 kts | 243° |
| 2026-04-10 15:54 | 43.39819 | 132.15874 | 48 ft | 13 kts | 242° |
| 2026-04-10 15:54 | 43.39770 | 132.15749 | 47 ft | 16 kts | 241° |
| 2026-04-10 15:55 | 43.39712 | 132.15605 | 47 ft | 18 kts | 241° |
| 2026-04-10 15:55 | 43.39647 | 132.15441 | 48 ft | 21 kts | 240° |
| 2026-04-10 15:55 | 43.39571 | 132.15262 | 45 ft | 23 kts | 241° |
| 2026-04-10 15:55 | 43.39493 | 132.15065 | 47 ft | 24 kts | 241° |
| 2026-04-10 15:56 | 43.39420 | 132.14885 | 46 ft | 18 kts | 241° |
| 2026-04-10 15:56 | 43.39362 | 132.14741 | 46 ft | 18 kts | 240° |
| 2026-04-10 15:56 | 43.39296 | 132.14582 | 44 ft | 20 kts | 240° |
| 2026-04-10 15:56 | 43.39227 | 132.14411 | 43 ft | 20 kts | 241° |
| 2026-04-10 15:57 | 43.39221 | 132.14274 | 42 ft | 12 kts | 315° |
| 2026-04-10 15:57 | 43.39274 | 132.14226 | 44 ft | 9 kts | 333° |
| 2026-04-10 15:57 | 43.39338 | 132.14188 | 46 ft | 11 kts | 348° |
| 2026-04-10 15:57 | 43.39403 | 132.14245 | 46 ft | 13 kts | 59° |
| 2026-04-10 15:58 | 43.39507 | 132.14508 | 46 ft | 69 kts | 62° |
| 2026-04-10 15:58 | 43.39869 | 132.15408 | 48 ft | 142 kts | 61° |
| 2026-04-10 15:58 | 43.40422 | 132.16770 | 235 ft | 186 kts | 61° |
| 2026-04-10 15:58 | 43.41175 | 132.18468 | 559 ft | 221 kts | 59° |
| 2026-04-10 15:59 | 43.41921 | 132.20259 | 1791 ft | 211 kts | 62° |
| 2026-04-10 15:59 | 43.42621 | 132.22081 | 2536 ft | 221 kts | 62° |
| 2026-04-10 15:59 | 43.43356 | 132.24008 | 3235 ft | 230 kts | 61° |
| 2026-04-10 15:59 | 43.44105 | 132.25949 | 4154 ft | 231 kts | 59° |
| 2026-04-10 16:00 | 43.44926 | 132.27826 | 4974 ft | 230 kts | 43° |
| 2026-04-10 16:00 | 43.46155 | 132.29191 | 5780 ft | 231 kts | 29° |
| 2026-04-10 16:00 | 43.47546 | 132.30538 | 6287 ft | 252 kts | 29° |
| 2026-04-10 16:00 | 43.49023 | 132.31965 | 6716 ft | 273 kts | 30° |
| 2026-04-10 16:01 | 43.50601 | 132.33504 | 7412 ft | 282 kts | 30° |
| 2026-04-10 16:01 | 43.52213 | 132.35092 | 8305 ft | 286 kts | 31° |
| 2026-04-10 16:01 | 43.53844 | 132.36701 | 9150 ft | 291 kts | 31° |
| 2026-04-10 16:01 | 43.55501 | 132.38334 | 9873 ft | 299 kts | 31° |
| 2026-04-10 16:02 | 43.57267 | 132.40064 | 10157 ft | 323 kts | 31° |
| 2026-04-10 16:02 | 43.59160 | 132.41919 | 10443 ft | 343 kts | 32° |
| 2026-04-10 16:02 | 43.61126 | 132.43855 | 11107 ft | 350 kts | 32° |
| 2026-04-10 16:02 | 43.63125 | 132.45829 | 11849 ft | 356 kts | 33° |
| 2026-04-10 16:03 | 43.65155 | 132.47835 | 12599 ft | 361 kts | 33° |
| 2026-04-10 16:03 | 43.67206 | 132.49862 | 13347 ft | 366 kts | 33° |
| 2026-04-10 16:03 | 43.69295 | 132.51928 | 13990 ft | 371 kts | 34° |
| 2026-04-10 16:03 | 43.71407 | 132.54017 | 14650 ft | 376 kts | 34° |
| 2026-04-10 16:04 | 43.73546 | 132.56135 | 15297 ft | 380 kts | 34° |
| 2026-04-10 16:04 | 43.75713 | 132.58283 | 15945 ft | 385 kts | 34° |
| 2026-04-10 16:04 | 43.77903 | 132.60455 | 16560 ft | 390 kts | 35° |
| 2026-04-10 16:04 | 43.80047 | 132.62783 | 17191 ft | 394 kts | 42° |
| 2026-04-10 16:05 | 43.81955 | 132.65539 | 17826 ft | 398 kts | 51° |
| 2026-04-10 16:05 | 43.83631 | 132.68597 | 18399 ft | 400 kts | 54° |
| 2026-04-10 16:05 | 43.85311 | 132.71699 | 18975 ft | 403 kts | 53° |
| 2026-04-10 16:05 | 43.87011 | 132.74815 | 19535 ft | 407 kts | 53° |
| 2026-04-10 16:06 | 43.88726 | 132.77954 | 20105 ft | 410 kts | 53° |
| 2026-04-10 16:06 | 43.90429 | 132.81072 | 20630 ft | 413 kts | 53° |
| 2026-04-10 16:06 | 43.92168 | 132.84260 | 21177 ft | 416 kts | 53° |
| 2026-04-10 16:06 | 43.93922 | 132.87480 | 21700 ft | 420 kts | 54° |
| 2026-04-10 16:07 | 43.95689 | 132.90728 | 22236 ft | 423 kts | 54° |
| 2026-04-10 16:07 | 43.97465 | 132.93999 | 22738 ft | 427 kts | 54° |
| 2026-04-10 16:07 | 43.99257 | 132.97303 | 23230 ft | 430 kts | 54° |
| 2026-04-10 16:07 | 44.01067 | 133.00647 | 23643 ft | 434 kts | 54° |
| 2026-04-10 16:08 | 44.02893 | 133.04023 | 24068 ft | 437 kts | 54° |
| 2026-04-10 16:08 | 44.04726 | 133.07419 | 24444 ft | 441 kts | 54° |
| 2026-04-10 16:08 | 44.06577 | 133.10852 | 24839 ft | 444 kts | 54° |
| 2026-04-10 16:08 | 44.08431 | 133.14295 | 25237 ft | 447 kts | 54° |
| 2026-04-10 16:09 | 44.10307 | 133.17782 | 25617 ft | 450 kts | 54° |
| 2026-04-10 16:09 | 44.12164 | 133.21238 | 25963 ft | 454 kts | 54° |
| 2026-04-10 16:09 | 44.14060 | 133.24773 | 26342 ft | 457 kts | 54° |
| 2026-04-10 16:09 | 44.15968 | 133.28333 | 26716 ft | 460 kts | 54° |
| 2026-04-10 16:10 | 44.17886 | 133.31915 | 27069 ft | 463 kts | 54° |
| 2026-04-10 16:10 | 44.19826 | 133.35543 | 27396 ft | 466 kts | 54° |
| 2026-04-10 16:10 | 44.21763 | 133.39171 | 27745 ft | 468 kts | 54° |
| 2026-04-10 16:10 | 44.23711 | 133.42823 | 28095 ft | 471 kts | 54° |
| 2026-04-10 16:11 | 44.25649 | 133.46512 | 28412 ft | 473 kts | 56° |
| 2026-04-10 16:11 | 44.27371 | 133.50436 | 28697 ft | 475 kts | 63° |
| 2026-04-10 16:11 | 44.28900 | 133.54537 | 29003 ft | 477 kts | 64° |
| 2026-04-10 16:11 | 44.30400 | 133.58624 | 29313 ft | 479 kts | 64° |
| 2026-04-10 16:12 | 44.31923 | 133.62784 | 29618 ft | 482 kts | 64° |
| 2026-04-10 16:12 | 44.33448 | 133.66957 | 29822 ft | 485 kts | 64° |
| 2026-04-10 16:12 | 44.34986 | 133.71181 | 30051 ft | 488 kts | 64° |
| 2026-04-10 16:13 | 44.38073 | 133.79695 | 30514 ft | 494 kts | 64° |
| 2026-04-10 16:13 | 44.39623 | 133.83987 | 30751 ft | 496 kts | 64° |
| 2026-04-10 16:13 | 44.41174 | 133.88299 | 31017 ft | 497 kts | 64° |
| 2026-04-10 16:13 | 44.42730 | 133.92637 | 31313 ft | 498 kts | 64° |
| 2026-04-10 16:14 | 44.44285 | 133.96987 | 31602 ft | 499 kts | 64° |
| 2026-04-10 16:14 | 44.45821 | 134.01294 | 31844 ft | 501 kts | 64° |
| 2026-04-10 16:14 | 44.47373 | 134.05663 | 32122 ft | 502 kts | 64° |
| 2026-04-10 16:14 | 44.48923 | 134.10039 | 32402 ft | 502 kts | 64° |
| 2026-04-10 16:15 | 44.50474 | 134.14430 | 32676 ft | 503 kts | 64° |
| 2026-04-10 16:15 | 44.52028 | 134.18842 | 32937 ft | 504 kts | 64° |
| 2026-04-10 16:15 | 44.53577 | 134.23255 | 33188 ft | 505 kts | 64° |
| 2026-04-10 16:15 | 44.55128 | 134.27685 | 33444 ft | 506 kts | 64° |
| 2026-04-10 16:16 | 44.56679 | 134.32128 | 33687 ft | 507 kts | 64° |
| 2026-04-10 16:16 | 44.58226 | 134.36566 | 33884 ft | 507 kts | 64° |
| 2026-04-10 16:16 | 44.59775 | 134.41026 | 34074 ft | 508 kts | 64° |
| 2026-04-10 16:16 | 44.61321 | 134.45483 | 34298 ft | 508 kts | 64° |
| 2026-04-10 16:17 | 44.62868 | 134.49948 | 34489 ft | 508 kts | 64° |
| 2026-04-10 16:17 | 44.64396 | 134.54365 | 34665 ft | 509 kts | 64° |
| 2026-04-10 16:17 | 44.66098 | 134.58718 | 34829 ft | 508 kts | 54° |
| 2026-04-10 16:17 | 44.68243 | 134.62654 | 35011 ft | 507 kts | 49° |
| 2026-04-10 16:18 | 44.70480 | 134.66497 | 35196 ft | 508 kts | 49° |
| 2026-04-10 16:18 | 44.72721 | 134.70343 | 35350 ft | 508 kts | 49° |
| 2026-04-10 16:18 | 44.74958 | 134.74190 | 35536 ft | 509 kts | 49° |
| 2026-04-10 16:18 | 44.77197 | 134.78048 | 35716 ft | 509 kts | 49° |
| 2026-04-10 16:19 | 44.79434 | 134.81905 | 35907 ft | 509 kts | 49° |
| 2026-04-10 16:19 | 44.81677 | 134.85778 | 36061 ft | 509 kts | 48° |
| 2026-04-10 16:19 | 44.83997 | 134.89551 | 36222 ft | 509 kts | 45° |
| 2026-04-10 16:19 | 44.86415 | 134.93182 | 36382 ft | 508 kts | 44° |
| 2026-04-10 16:20 | 44.88852 | 134.96795 | 36546 ft | 509 kts | 44° |
| 2026-04-10 16:20 | 44.91290 | 135.00418 | 36706 ft | 509 kts | 44° |
| 2026-04-10 16:20 | 44.93725 | 135.04042 | 36865 ft | 509 kts | 44° |
| 2026-04-10 16:20 | 44.96164 | 135.07678 | 37024 ft | 509 kts | 44° |
| 2026-04-10 16:21 | 44.98601 | 135.11316 | 37181 ft | 510 kts | 44° |
| 2026-04-10 16:21 | 45.01007 | 135.14916 | 37320 ft | 510 kts | 44° |
| 2026-04-10 16:21 | 45.03441 | 135.18565 | 37467 ft | 510 kts | 44° |
| 2026-04-10 16:21 | 45.05878 | 135.22225 | 37592 ft | 510 kts | 44° |
| 2026-04-10 16:22 | 45.08310 | 135.25883 | 37746 ft | 510 kts | 44° |
| 2026-04-10 16:22 | 45.10742 | 135.29548 | 37867 ft | 511 kts | 44° |
| 2026-04-10 16:22 | 45.13174 | 135.33221 | 37995 ft | 511 kts | 44° |
| 2026-04-10 16:22 | 45.15604 | 135.36895 | 38122 ft | 511 kts | 44° |
| 2026-04-10 16:23 | 45.18037 | 135.40578 | 38236 ft | 511 kts | 44° |
| 2026-04-10 16:23 | 45.22892 | 135.47943 | 38415 ft | 511 kts | 44° |
| 2026-04-10 16:24 | 45.27752 | 135.55321 | 38518 ft | 511 kts | 44° |
| 2026-04-10 16:24 | 45.32606 | 135.62696 | 38524 ft | 511 kts | 44° |
| 2026-04-10 16:25 | 45.37459 | 135.70081 | 38530 ft | 510 kts | 44° |
| 2026-04-10 16:25 | 45.42304 | 135.77466 | 38527 ft | 511 kts | 44° |
| 2026-04-10 16:26 | 45.47119 | 135.84812 | 38529 ft | 511 kts | 44° |
| 2026-04-10 16:26 | 45.51967 | 135.92221 | 38528 ft | 511 kts | 44° |
| 2026-04-10 16:27 | 45.56814 | 135.99634 | 38529 ft | 511 kts | 44° |
| 2026-04-10 16:27 | 45.60873 | 136.05854 | 38531 ft | 511 kts | 44° |
| 2026-04-10 16:28 | 45.65690 | 136.13285 | 38532 ft | 512 kts | 45° |
| 2026-04-10 16:28 | 45.70279 | 136.21125 | 38533 ft | 514 kts | 47° |
| 2026-04-10 16:29 | 45.74815 | 136.29017 | 38539 ft | 514 kts | 47° |
| 2026-04-10 16:29 | 45.79362 | 136.36944 | 38543 ft | 514 kts | 47° |
| 2026-04-10 16:30 | 45.83872 | 136.44823 | 38534 ft | 513 kts | 47° |
| 2026-04-10 16:30 | 45.88401 | 136.52747 | 38545 ft | 514 kts | 47° |
| 2026-04-10 16:31 | 45.92944 | 136.60704 | 38549 ft | 513 kts | 47° |
| 2026-04-10 16:31 | 45.97440 | 136.68599 | 38556 ft | 513 kts | 47° |
| 2026-04-10 16:32 | 46.01968 | 136.76559 | 38564 ft | 513 kts | 47° |
| 2026-04-10 16:32 | 46.06494 | 136.84523 | 38572 ft | 514 kts | 47° |
| 2026-04-10 16:33 | 46.11020 | 136.92497 | 38582 ft | 514 kts | 47° |
| 2026-04-10 16:33 | 46.15659 | 137.00353 | 38587 ft | 513 kts | 45° |
| 2026-04-10 16:34 | 46.20385 | 137.07976 | 38590 ft | 512 kts | 44° |
| 2026-04-10 16:34 | 46.25280 | 137.15432 | 38586 ft | 506 kts | 35° |
| 2026-04-10 16:35 | 46.30930 | 137.21421 | 38587 ft | 500 kts | 27° |
| 2026-04-10 16:35 | 46.33754 | 137.24411 | 38582 ft | 506 kts | 38° |
| 2026-04-10 16:35 | 46.36171 | 137.28142 | 38579 ft | 512 kts | 50° |
| 2026-04-10 16:35 | 46.38061 | 137.32448 | 38569 ft | 515 kts | 62° |
| 2026-04-10 16:36 | 46.39396 | 137.37275 | 38567 ft | 516 kts | 73° |
| 2026-04-10 16:36 | 46.41136 | 137.47415 | 38595 ft | 521 kts | 77° |
| 2026-04-10 16:37 | 46.42895 | 137.57633 | 38590 ft | 522 kts | 75° |
| 2026-04-10 16:37 | 46.44777 | 137.67796 | 38585 ft | 522 kts | 75° |
| 2026-04-10 16:38 | 46.46673 | 137.77902 | 38601 ft | 522 kts | 75° |
| 2026-04-10 16:38 | 46.48577 | 137.88100 | 38595 ft | 524 kts | 75° |
| 2026-04-10 16:39 | 46.50472 | 137.98317 | 38593 ft | 523 kts | 75° |
| 2026-04-10 16:39 | 46.52357 | 138.08538 | 38598 ft | 524 kts | 75° |
| 2026-04-10 16:40 | 46.54221 | 138.18764 | 38598 ft | 524 kts | 75° |
| 2026-04-10 16:40 | 46.56077 | 138.29024 | 38598 ft | 525 kts | 75° |
| 2026-04-10 16:41 | 46.57928 | 138.39302 | 38600 ft | 526 kts | 75° |
| 2026-04-10 16:41 | 46.59773 | 138.49597 | 38595 ft | 527 kts | 75° |
| 2026-04-10 16:42 | 46.61598 | 138.59843 | 38600 ft | 527 kts | 75° |
| 2026-04-10 16:42 | 46.62962 | 138.70326 | 38596 ft | 527 kts | 85° |
| 2026-04-10 16:43 | 46.63804 | 138.80937 | 38590 ft | 528 kts | 84° |
| 2026-04-10 16:43 | 46.64663 | 138.91554 | 38585 ft | 528 kts | 84° |
| 2026-04-10 16:44 | 46.65507 | 139.02185 | 38583 ft | 529 kts | 84° |
| 2026-04-10 16:44 | 46.66339 | 139.12836 | 38582 ft | 529 kts | 84° |
| 2026-04-10 16:45 | 46.67163 | 139.23511 | 38579 ft | 530 kts | 84° |
| 2026-04-10 16:45 | 46.67971 | 139.34107 | 38575 ft | 531 kts | 84° |
| 2026-04-10 16:46 | 46.68782 | 139.44797 | 38577 ft | 531 kts | 84° |
| 2026-04-10 16:46 | 46.69594 | 139.55492 | 38571 ft | 532 kts | 84° |
| 2026-04-10 16:47 | 46.70397 | 139.66208 | 38571 ft | 532 kts | 84° |
| 2026-04-10 16:47 | 46.71189 | 139.76937 | 38568 ft | 533 kts | 85° |
| 2026-04-10 16:48 | 46.71972 | 139.87690 | 38565 ft | 533 kts | 85° |
| 2026-04-10 16:48 | 46.72745 | 139.98449 | 38563 ft | 534 kts | 85° |
| 2026-04-10 16:49 | 46.73534 | 140.09188 | 38213 ft | 532 kts | 84° |
| 2026-04-10 16:49 | 46.73939 | 140.14559 | 37481 ft | 534 kts | 85° |
| 2026-04-10 16:49 | 46.74326 | 140.19964 | 36605 ft | 539 kts | 85° |
| 2026-04-10 16:49 | 46.74694 | 140.25351 | 35696 ft | 544 kts | 85° |
| 2026-04-10 16:50 | 46.75066 | 140.30873 | 34768 ft | 550 kts | 86° |
| 2026-04-10 16:50 | 46.75441 | 140.36471 | 33827 ft | 552 kts | 86° |
| 2026-04-10 16:50 | 46.75846 | 140.41711 | 32739 ft | 508 kts | 87° |
| 2026-04-10 16:50 | 46.76298 | 140.46797 | 31655 ft | 505 kts | 86° |
| 2026-04-10 16:51 | 46.76787 | 140.51830 | 30620 ft | 498 kts | 85° |
| 2026-04-10 16:51 | 46.77307 | 140.56804 | 29639 ft | 491 kts | 84° |
| 2026-04-10 16:51 | 46.77848 | 140.61694 | 28532 ft | 486 kts | 84° |
| 2026-04-10 16:51 | 46.78419 | 140.66547 | 27468 ft | 484 kts | 83° |
| 2026-04-10 16:52 | 46.79023 | 140.71375 | 26474 ft | 483 kts | 83° |
| 2026-04-10 16:52 | 46.79666 | 140.76203 | 25517 ft | 484 kts | 82° |
| 2026-04-10 16:52 | 46.80350 | 140.81009 | 24599 ft | 483 kts | 81° |
| 2026-04-10 16:52 | 46.81064 | 140.85724 | 23698 ft | 479 kts | 80° |
| 2026-04-10 16:53 | 46.81822 | 140.90419 | 22762 ft | 469 kts | 79° |
| 2026-04-10 16:53 | 46.82613 | 140.95016 | 21809 ft | 464 kts | 78° |
| 2026-04-10 16:53 | 46.83442 | 140.99566 | 20902 ft | 463 kts | 78° |
| 2026-04-10 16:53 | 46.84312 | 141.04094 | 20029 ft | 461 kts | 77° |
| 2026-04-10 16:54 | 46.85218 | 141.08588 | 19184 ft | 459 kts | 76° |
| 2026-04-10 16:54 | 46.86159 | 141.13036 | 18393 ft | 457 kts | 75° |
| 2026-04-10 16:54 | 46.87122 | 141.17389 | 17587 ft | 454 kts | 75° |
| 2026-04-10 16:54 | 46.88141 | 141.21790 | 16707 ft | 450 kts | 74° |
| 2026-04-10 16:55 | 46.89165 | 141.26024 | 15885 ft | 445 kts | 73° |
| 2026-04-10 16:55 | 46.90231 | 141.30240 | 15078 ft | 440 kts | 72° |
| 2026-04-10 16:55 | 46.91331 | 141.34396 | 14295 ft | 434 kts | 71° |
| 2026-04-10 16:55 | 46.92455 | 141.38456 | 13574 ft | 428 kts | 71° |
| 2026-04-10 16:56 | 46.93603 | 141.42431 | 12783 ft | 421 kts | 70° |
| 2026-04-10 16:56 | 46.94775 | 141.46329 | 11996 ft | 414 kts | 69° |
| 2026-04-10 16:56 | 46.95956 | 141.50131 | 11244 ft | 406 kts | 68° |
| 2026-04-10 16:56 | 46.97142 | 141.53844 | 10528 ft | 398 kts | 67° |
| 2026-04-10 16:57 | 46.98327 | 141.57474 | 9843 ft | 391 kts | 66° |
| 2026-04-10 16:57 | 46.99512 | 141.61028 | 9143 ft | 384 kts | 66° |
| 2026-04-10 16:57 | 47.00695 | 141.64498 | 8434 ft | 377 kts | 65° |
| 2026-04-10 16:57 | 47.01865 | 141.67841 | 7770 ft | 371 kts | 65° |
| 2026-04-10 16:58 | 47.03071 | 141.71202 | 7120 ft | 376 kts | 64° |